M/V Alton St. Amant — WDE7604 — position and weather

sailwx.info

Track history (hours):
 
Tides and Currents Weather Stations Pressure Air Temp Water Temp Dewpoint Dewpoint Depression Visibility Wind Speed Wind Dir Waves Ship Positions

M/V Alton St. Amant

Owner: The Barge Investment Group Five, L.L.C., Harahan, LA. More information available from US FCC via Universal Licensing System and Coast Guard Vessel Documentation Center.

Last reported at 2015-Jul-01 09:31 UTC. Time now 2015-Jul-04 15:19 UTC.
Position N 29°59' W 090°24'.

Length 25 m; draft 2.7 m.

Type: Towing. MMSI: 367395270.

Date/timePositionNaut miles runAvg speedWind from/ knotsBaromVisibWave heightAir tempDewpointWater temp
2015-Jul-01 09:31N 29°59' W 090°24'0 0.0
2015-Jul-01 08:33N 29°59' W 090°24'0 0.0
2015-Jul-01 07:33N 29°59' W 090°24'0 0.0
2015-Jul-01 06:27N 29°59' W 090°24'  
2015-Jun-26 04:33N 29°59' W 090°24'0 0.0
2015-Jun-26 02:10N 29°59' W 090°24'2 1.1
2015-Jun-26 00:24N 29°57' W 090°23'1 0.0
2015-Jun-24 04:28N 29°58' W 090°24'0 0.0
2015-Jun-24 03:28N 29°58' W 090°24'0 0.0
2015-Jun-22 09:33N 29°58' W 090°24'14 0.7
2015-Jun-21 14:33N 29°56' W 090°08'4 4.2
2015-Jun-21 13:33N 29°56' W 090°04'2 1.7
2015-Jun-21 12:33N 29°58' W 090°02'1 0.7
2015-Jun-21 11:31N 29°58' W 090°02'1 1.3
2015-Jun-21 10:33N 29°59' W 090°01'1 1.2
2015-Jun-21 09:32N 29°60' W 090°00'  
Track history (hours):
 
Tides and Currents Weather Stations Pressure Air Temp Water Temp Dewpoint Dewpoint Depression Visibility Wind Speed Wind Dir Waves Ship Positions

M/V Alton St. Amant

Owner: The Barge Investment Group Five, L.L.C., Harahan, LA. More information available from US FCC via Universal Licensing System and Coast Guard Vessel Documentation Center.

Last reported at 2015-Jul-01 09:31 UTC. Time now 2015-Jul-04 15:19 UTC.
Position N 29°59' W 090°24'.

Length 25 m; draft 2.7 m.

Type: Towing. MMSI: 367395270.

Date/timePositionNaut miles runAvg speedWind from/ knotsBaromVisibWave heightAir tempDewpointWater temp
2015-Jul-01 09:31N 29°59' W 090°24'0 0.0
2015-Jul-01 08:33N 29°59' W 090°24'0 0.0
2015-Jul-01 07:33N 29°59' W 090°24'0 0.0
2015-Jul-01 06:27N 29°59' W 090°24'  
2015-Jun-26 04:33N 29°59' W 090°24'0 0.0
2015-Jun-26 02:10N 29°59' W 090°24'2 1.1
2015-Jun-26 00:24N 29°57' W 090°23'1 0.0
2015-Jun-24 04:28N 29°58' W 090°24'0 0.0
2015-Jun-24 03:28N 29°58' W 090°24'0 0.0
2015-Jun-22 09:33N 29°58' W 090°24'14 0.7
2015-Jun-21 14:33N 29°56' W 090°08'4 4.2
2015-Jun-21 13:33N 29°56' W 090°04'2 1.7
2015-Jun-21 12:33N 29°58' W 090°02'1 0.7
2015-Jun-21 11:31N 29°58' W 090°02'1 1.3
2015-Jun-21 10:33N 29°59' W 090°01'1 1.2
2015-Jun-21 09:32N 29°60' W 090°00'  

Dump ship's entire track history